createdAt,value
2022-12-15T00:02:24.787Z,97250.09
2022-12-15T00:05:10.020Z,97255.28
2022-12-15T00:07:55.102Z,97255.38
2022-12-15T00:10:39.995Z,97257.94
2022-12-15T00:13:32.733Z,97249.75
2022-12-15T00:16:18.311Z,97255.84
2022-12-15T00:19:03.961Z,97271.81
2022-12-15T00:21:49.563Z,97259.84
2022-12-15T00:24:35.163Z,97261.34
2022-12-15T00:27:20.427Z,97256.13
2022-12-15T00:30:05.511Z,97258.06
2022-12-15T00:32:50.764Z,97261.41
2022-12-15T00:35:35.636Z,97257.94
2022-12-15T00:38:28.798Z,97267.28
2022-12-15T00:40:59.208Z,97275.00
2022-12-15T00:43:27.946Z,97275.56
2022-12-15T00:46:14.002Z,97278.44
2022-12-15T00:48:41.576Z,97285.75
2022-12-15T00:51:08.603Z,97279.09
2022-12-15T00:53:54.092Z,97278.25
2022-12-15T00:56:38.942Z,97290.13
2022-12-15T00:59:24.106Z,97297.91
2022-12-15T01:02:09.114Z,97296.34
2022-12-15T01:04:54.360Z,97308.09
2022-12-15T01:07:39.373Z,97297.75
2022-12-15T01:10:25.473Z,97308.81
2022-12-15T01:13:10.665Z,97315.47
2022-12-15T01:15:57.082Z,97324.91
2022-12-15T01:18:43.197Z,97313.19
2022-12-15T01:21:16.508Z,97316.06
2022-12-15T01:23:43.213Z,97306.91
2022-12-15T01:26:10.070Z,97313.66
2022-12-15T01:28:36.938Z,97311.34
2022-12-15T01:31:11.790Z,97316.53
2022-12-15T01:33:39.071Z,97317.34
2022-12-15T01:36:05.788Z,97326.00
2022-12-15T01:38:32.446Z,97329.41
2022-12-15T01:41:02.503Z,97332.94
2022-12-15T01:43:34.981Z,97331.09
2022-12-15T01:46:03.102Z,97337.97
2022-12-15T01:48:32.006Z,97336.25
2022-12-15T01:51:13.781Z,97337.19
2022-12-15T01:53:59.292Z,97348.22
2022-12-15T01:56:30.060Z,97345.03
2022-12-15T01:59:03.319Z,97344.34
2022-12-15T02:01:30.351Z,97350.31
2022-12-15T02:03:57.134Z,97352.22
2022-12-15T02:06:26.715Z,97358.16
2022-12-15T02:08:55.874Z,97357.03
2022-12-15T02:11:59.555Z,97364.19
2022-12-15T02:14:32.244Z,97367.63
2022-12-15T02:17:16.486Z,97376.31
2022-12-15T02:20:15.191Z,97376.16
2022-12-15T02:22:56.765Z,97386.56
2022-12-15T02:25:35.233Z,97382.94
2022-12-15T02:28:10.214Z,97379.63
2022-12-15T02:31:14.224Z,97387.19
2022-12-15T02:33:55.004Z,97379.53
2022-12-15T02:36:29.289Z,97383.84
2022-12-15T02:38:56.000Z,97382.66
2022-12-15T02:41:37.875Z,97389.41
2022-12-15T02:44:24.719Z,97400.25
2022-12-15T02:47:32.615Z,97400.44
2022-12-15T02:50:49.941Z,97402.97
2022-12-15T02:53:19.503Z,97395.22
2022-12-15T02:56:01.437Z,97402.81
2022-12-15T02:58:43.292Z,97408.63
2022-12-15T03:01:18.947Z,97416.34
2022-12-15T03:03:48.371Z,97426.53
2022-12-15T03:06:16.863Z,97422.09
2022-12-15T03:08:43.451Z,97425.38
2022-12-15T03:11:10.147Z,97420.94
2022-12-15T03:13:36.913Z,97430.84
2022-12-15T03:16:03.785Z,97429.72
2022-12-15T03:18:30.573Z,97432.22
2022-12-15T03:20:57.180Z,97435.53
2022-12-15T03:23:23.845Z,97438.75
2022-12-15T03:25:50.695Z,97447.00
2022-12-15T03:28:17.994Z,97439.31
2022-12-15T03:30:44.882Z,97455.50
2022-12-15T03:33:11.737Z,97451.91
2022-12-15T03:35:38.469Z,97451.59
2022-12-15T03:38:05.102Z,97453.78
2022-12-15T03:40:32.090Z,97458.88
2022-12-15T03:42:58.897Z,97456.41
2022-12-15T03:45:27.361Z,97450.78
2022-12-15T03:47:57.635Z,97466.91
2022-12-15T03:50:27.018Z,97461.75
2022-12-15T03:52:59.217Z,97463.63
2022-12-15T03:55:26.616Z,97470.75
2022-12-15T03:57:53.312Z,97477.75
2022-12-15T04:00:21.527Z,97476.09
2022-12-15T04:02:50.122Z,97468.75
2022-12-15T04:05:30.169Z,97472.97
2022-12-15T04:07:58.378Z,97472.75
2022-12-15T04:10:33.384Z,97472.59
2022-12-15T04:13:02.609Z,97481.16
2022-12-15T04:15:29.768Z,97475.22
2022-12-15T04:17:56.529Z,97477.97
2022-12-15T04:20:23.267Z,97480.50
2022-12-15T04:22:51.136Z,97479.84
2022-12-15T04:25:39.588Z,97481.53
2022-12-15T04:28:26.050Z,97486.69
2022-12-15T04:31:17.635Z,97498.72
2022-12-15T04:34:06.950Z,97503.91
2022-12-15T04:36:55.296Z,97505.78
2022-12-15T04:39:41.076Z,97499.09
2022-12-15T04:42:26.344Z,97495.78
2022-12-15T04:45:20.331Z,97497.50
2022-12-15T04:48:06.327Z,97497.72
2022-12-15T04:50:51.348Z,97488.28
2022-12-15T04:53:37.397Z,97499.38
2022-12-15T04:56:23.297Z,97500.22
2022-12-15T04:59:08.515Z,97505.13
2022-12-15T05:01:54.144Z,97516.19
2022-12-15T05:04:39.531Z,97515.09
2022-12-15T05:07:24.671Z,97512.41
2022-12-15T05:10:14.729Z,97511.59
2022-12-15T05:13:00.944Z,97511.78
2022-12-15T05:15:46.661Z,97516.03
2022-12-15T05:18:32.327Z,97517.91
2022-12-15T05:21:17.746Z,97525.13
2022-12-15T05:24:03.574Z,97522.06
2022-12-15T05:26:52.533Z,97526.06
2022-12-15T05:29:38.200Z,97541.22
2022-12-15T05:32:04.997Z,97542.94
2022-12-15T05:34:33.822Z,97542.72
2022-12-15T05:37:02.583Z,97546.13
2022-12-15T05:39:29.893Z,97555.41
2022-12-15T05:41:57.574Z,97556.91
2022-12-15T05:44:25.784Z,97558.44
2022-12-15T05:46:53.004Z,97548.94
2022-12-15T05:49:19.990Z,97553.13
2022-12-15T05:51:48.337Z,97554.63
2022-12-15T05:54:17.509Z,97558.00
2022-12-15T05:56:44.838Z,97555.91
2022-12-15T05:59:11.820Z,97558.13
2022-12-15T06:01:38.620Z,97580.22
2022-12-15T06:04:05.613Z,97589.13
2022-12-15T06:06:32.774Z,97604.47
2022-12-15T06:08:59.680Z,97589.53
2022-12-15T06:11:26.631Z,97604.53
2022-12-15T06:13:53.425Z,97607.69
2022-12-15T06:16:21.710Z,97611.78
2022-12-15T06:18:54.274Z,97613.03
2022-12-15T06:21:24.072Z,97612.97
2022-12-15T06:23:51.609Z,97611.84
2022-12-15T06:26:19.470Z,97608.97
2022-12-15T06:28:47.057Z,97611.97
2022-12-15T06:31:14.746Z,97616.13
2022-12-15T06:33:41.854Z,97617.09
2022-12-15T06:36:11.589Z,97623.38
2022-12-15T06:38:38.847Z,97620.94
2022-12-15T06:41:06.706Z,97628.16
2022-12-15T06:43:34.703Z,97635.59
2022-12-15T06:46:02.609Z,97637.41
2022-12-15T06:48:29.807Z,97635.91
2022-12-15T06:50:56.789Z,97640.97
2022-12-15T06:53:24.594Z,97641.81
2022-12-15T06:55:51.379Z,97640.13
2022-12-15T06:58:18.484Z,97650.28
2022-12-15T07:00:46.687Z,97644.91
2022-12-15T07:03:16.320Z,97644.19
2022-12-15T07:05:44.542Z,97649.06
2022-12-15T07:08:12.616Z,97661.75
2022-12-15T07:10:44.208Z,97655.59
2022-12-15T07:13:14.300Z,97662.84
2022-12-15T07:15:41.738Z,97663.59
2022-12-15T07:18:10.523Z,97667.78
2022-12-15T07:20:37.215Z,97674.34
2022-12-15T07:23:08.222Z,97677.41
2022-12-15T07:25:36.884Z,97664.34
2022-12-15T07:28:04.147Z,97665.41
2022-12-15T07:30:36.781Z,97656.38
2022-12-15T07:33:06.053Z,97663.59
2022-12-15T07:35:32.995Z,97656.97
2022-12-15T07:38:00.339Z,97664.88
2022-12-15T07:40:27.113Z,97665.16
2022-12-15T07:42:53.806Z,97673.03
2022-12-15T07:45:20.764Z,97674.84
2022-12-15T07:47:50.342Z,97677.63
2022-12-15T07:50:18.721Z,97677.78
2022-12-15T07:52:46.521Z,97668.81
2022-12-15T07:55:13.309Z,97676.38
2022-12-15T07:57:40.049Z,97669.41
2022-12-15T08:00:09.330Z,97683.16
2022-12-15T08:02:36.136Z,97681.41
2022-12-15T08:05:02.977Z,97692.53
2022-12-15T08:07:29.578Z,97692.25
2022-12-15T08:09:56.288Z,97696.72
2022-12-15T08:12:22.842Z,97688.53
2022-12-15T08:14:50.069Z,97691.34
2022-12-15T08:17:16.974Z,97694.13
2022-12-15T08:19:44.240Z,97695.19
2022-12-15T08:22:12.078Z,97709.22
2022-12-15T08:24:38.839Z,97711.31
2022-12-15T08:27:05.573Z,97711.59
2022-12-15T08:29:50.592Z,97706.84
2022-12-15T08:32:18.145Z,97698.31
2022-12-15T08:34:44.898Z,97705.28
2022-12-15T08:37:11.508Z,97714.53
2022-12-15T08:39:39.067Z,97708.34
2022-12-15T08:42:06.025Z,97712.47
2022-12-15T08:44:32.716Z,97702.72
2022-12-15T08:46:59.341Z,97709.56
2022-12-15T08:49:26.062Z,97705.84
2022-12-15T08:51:52.656Z,97705.56
2022-12-15T08:54:20.638Z,97707.13
2022-12-15T08:56:47.773Z,97709.47
2022-12-15T08:59:14.460Z,97710.25
2022-12-15T09:01:41.810Z,97715.41
2022-12-15T09:04:08.577Z,97714.59
2022-12-15T09:06:36.892Z,97717.91
2022-12-15T09:09:07.692Z,97720.63
2022-12-15T09:11:35.369Z,97727.47
2022-12-15T09:14:03.046Z,97728.47
2022-12-15T09:16:29.805Z,97732.59
2022-12-15T09:18:58.892Z,97743.09
2022-12-15T09:21:28.859Z,97756.69
2022-12-15T09:24:00.525Z,97746.31
2022-12-15T09:26:32.573Z,97744.06
2022-12-15T09:28:59.721Z,97753.53
2022-12-15T09:31:29.071Z,97755.97
2022-12-15T09:33:57.888Z,97748.94
2022-12-15T09:36:25.817Z,97749.09
2022-12-15T09:38:53.085Z,97749.22
2022-12-15T09:41:32.274Z,97761.16
2022-12-15T09:44:03.460Z,97758.75
2022-12-15T09:46:42.180Z,97755.44
2022-12-15T09:49:24.052Z,97752.44
2022-12-15T09:52:07.209Z,97753.06
2022-12-15T09:54:37.710Z,97757.28
2022-12-15T09:57:21.321Z,97750.81
2022-12-15T10:00:25.982Z,97753.59
2022-12-15T10:03:14.696Z,97756.72
2022-12-15T10:06:15.611Z,97751.84
2022-12-15T10:08:54.672Z,97759.28
2022-12-15T10:11:52.216Z,97766.84
2022-12-15T10:14:40.731Z,97768.69
2022-12-15T10:17:28.469Z,97765.53
2022-12-15T10:20:28.966Z,97761.16
2022-12-15T10:23:17.190Z,97764.13
2022-12-15T10:25:58.036Z,97769.25
2022-12-15T10:28:51.259Z,97763.31
2022-12-15T10:31:36.304Z,97758.91
2022-12-15T10:34:11.459Z,97756.88
2022-12-15T10:36:38.290Z,97755.19
2022-12-15T10:39:04.894Z,97754.13
2022-12-15T10:41:33.781Z,97752.78
2022-12-15T10:44:02.801Z,97756.34
2022-12-15T10:46:32.372Z,97751.41
2022-12-15T10:49:08.502Z,97756.84
2022-12-15T10:51:43.930Z,97751.13
2022-12-15T10:54:14.543Z,97752.22
2022-12-15T10:56:50.426Z,97743.63
2022-12-15T10:59:29.409Z,97742.53
2022-12-15T11:01:56.234Z,97749.56
2022-12-15T11:04:27.029Z,97749.38
2022-12-15T11:07:02.183Z,97751.81
2022-12-15T11:09:28.843Z,97741.66
2022-12-15T11:12:14.370Z,97737.97
2022-12-15T11:14:51.697Z,97748.03
2022-12-15T11:17:23.517Z,97745.50
2022-12-15T11:20:02.213Z,97757.41
2022-12-15T11:22:42.417Z,97756.66
2022-12-15T11:25:31.684Z,97755.72
2022-12-15T11:28:00.514Z,97761.34
2022-12-15T11:30:34.026Z,97769.78
2022-12-15T11:33:01.647Z,97759.78
2022-12-15T11:35:46.685Z,97759.06
2022-12-15T11:38:26.261Z,97754.91
2022-12-15T11:40:55.469Z,97759.31
2022-12-15T11:43:46.173Z,97749.94
2022-12-15T11:46:27.320Z,97743.25
2022-12-15T11:49:03.066Z,97745.94
2022-12-15T11:51:41.375Z,97740.78
2022-12-15T11:54:16.897Z,97748.63
2022-12-15T11:56:50.856Z,97741.78
2022-12-15T11:59:29.820Z,97750.44
2022-12-15T12:02:16.684Z,97741.88
2022-12-15T12:05:08.082Z,97750.47
2022-12-15T12:10:41.464Z,97742.94
2022-12-15T12:13:08.021Z,97746.44
2022-12-15T12:16:11.726Z,97745.59
2022-12-15T12:18:45.037Z,97742.84
2022-12-15T12:21:24.634Z,97737.69
2022-12-15T12:24:06.463Z,97729.25
2022-12-15T12:26:42.408Z,97729.16
2022-12-15T12:29:48.816Z,97724.75
2022-12-15T12:32:35.444Z,97713.75
2022-12-15T12:38:20.457Z,97713.84
2022-12-15T12:41:23.579Z,97719.09
2022-12-15T12:43:55.940Z,97720.88
2022-12-15T12:46:49.087Z,97724.38
2022-12-15T12:49:26.794Z,97715.69
2022-12-15T12:51:57.009Z,97715.59
2022-12-15T12:54:32.823Z,97715.56
2022-12-15T12:56:59.490Z,97710.31
2022-12-15T12:59:29.022Z,97713.94
2022-12-15T13:02:31.716Z,97706.25
2022-12-15T13:04:59.032Z,97708.81
2022-12-15T13:07:41.045Z,97716.47
2022-12-15T13:10:07.619Z,97711.19
2022-12-15T13:15:46.077Z,97699.06
2022-12-15T13:18:23.828Z,97703.31
2022-12-15T13:20:54.948Z,97691.34
2022-12-15T13:23:21.603Z,97694.66
2022-12-15T13:25:57.025Z,97688.13
2022-12-15T13:28:30.252Z,97691.34
2022-12-15T13:31:19.374Z,97688.88
2022-12-15T13:33:55.758Z,97699.19
2022-12-15T13:36:37.985Z,97696.47
2022-12-15T13:39:30.217Z,97696.47
2022-12-15T13:44:52.799Z,97690.50
2022-12-15T13:47:19.367Z,97695.75
2022-12-15T13:50:03.240Z,97701.75
2022-12-15T13:53:17.147Z,97700.13
2022-12-15T13:55:39.143Z,97703.66
2022-12-15T13:58:17.710Z,97700.91
2022-12-15T14:00:56.416Z,97705.25
2022-12-15T14:03:24.105Z,97698.50
2022-12-15T14:05:56.394Z,97694.16
2022-12-15T14:08:25.936Z,97700.88
2022-12-15T14:11:16.615Z,97705.91
2022-12-15T14:13:52.330Z,97696.38
2022-12-15T14:16:22.868Z,97699.72
2022-12-15T14:19:14.031Z,97703.03
2022-12-15T14:21:40.760Z,97699.63
2022-12-15T14:24:39.851Z,97697.78
2022-12-15T14:27:06.965Z,97693.22
2022-12-15T14:29:33.838Z,97685.41
2022-12-15T14:32:00.932Z,97692.13
2022-12-15T14:34:32.714Z,97687.72
2022-12-15T14:37:03.709Z,97681.91
2022-12-15T14:39:38.387Z,97686.13
2022-12-15T14:42:07.772Z,97687.09
2022-12-15T14:44:39.181Z,97684.41
2022-12-15T14:47:16.956Z,97684.13
2022-12-15T14:49:45.983Z,97685.63
2022-12-15T14:52:34.516Z,97682.03
2022-12-15T14:55:04.086Z,97679.19
2022-12-15T14:57:44.954Z,97686.69
2022-12-15T15:00:34.496Z,97683.88
2022-12-15T15:03:11.089Z,97750.47
2022-12-15T15:03:20.298Z,97688.25
2022-12-15T15:05:51.909Z,97687.19
2022-12-15T15:08:32.617Z,97683.50
2022-12-15T15:11:04.657Z,97688.50
2022-12-15T15:13:40.884Z,97685.00
2022-12-15T15:16:16.801Z,97677.31
2022-12-15T15:18:44.482Z,97678.06
2022-12-15T15:21:19.044Z,97682.94
2022-12-15T15:24:05.040Z,97690.38
2022-12-15T15:26:31.927Z,97690.22
2022-12-15T15:28:58.951Z,97693.00
2022-12-15T15:31:25.876Z,97694.72
2022-12-15T15:33:53.051Z,97697.81
2022-12-15T15:36:20.136Z,97701.16
2022-12-15T15:38:47.076Z,97702.94
2022-12-15T15:41:19.072Z,97701.38
2022-12-15T15:43:46.984Z,97711.53
2022-12-15T15:46:18.176Z,97720.78
2022-12-15T15:48:49.896Z,97728.56
2022-12-15T15:51:16.617Z,97724.16
2022-12-15T15:53:43.422Z,97730.09
2022-12-15T15:56:14.825Z,97724.03
2022-12-15T15:58:43.757Z,97730.78
2022-12-15T16:01:13.361Z,97727.13
2022-12-15T16:03:41.355Z,97720.91
2022-12-15T16:06:19.982Z,97716.81
2022-12-15T16:08:54.072Z,97725.34
2022-12-15T16:11:22.891Z,97723.03
2022-12-15T16:13:49.535Z,97734.25
2022-12-15T16:16:21.935Z,97737.78
2022-12-15T16:18:48.674Z,97741.31
2022-12-15T16:21:17.752Z,97750.81
2022-12-15T16:23:47.235Z,97746.50
2022-12-15T16:26:16.428Z,97740.19
2022-12-15T16:28:43.439Z,97743.81
2022-12-15T16:31:16.175Z,97748.91
2022-12-15T16:33:42.884Z,97748.72
2022-12-15T16:36:14.016Z,97751.19
2022-12-15T16:38:41.642Z,97746.81
2022-12-15T16:41:14.551Z,97756.25
2022-12-15T16:43:46.162Z,97749.31
2022-12-15T16:46:17.505Z,97750.00
2022-12-15T16:48:44.270Z,97745.44
2022-12-15T16:51:26.533Z,97750.78
2022-12-15T16:53:53.109Z,97749.81
2022-12-15T16:56:19.848Z,97752.28
2022-12-15T16:58:49.000Z,97752.28
2022-12-15T17:01:19.609Z,97748.38
2022-12-15T17:03:47.473Z,97748.03
2022-12-15T17:06:16.288Z,97745.81
2022-12-15T17:08:51.510Z,97737.53
2022-12-15T17:11:23.924Z,97729.66
2022-12-15T17:13:53.777Z,97727.97
2022-12-15T17:16:22.720Z,97726.00
2022-12-15T17:18:50.189Z,97726.44
2022-12-15T17:21:20.508Z,97722.28
2022-12-15T17:23:53.434Z,97725.75
2022-12-15T17:26:29.482Z,97721.56
2022-12-15T17:29:00.722Z,97721.94
2022-12-15T17:31:33.288Z,97732.06
2022-12-15T17:34:02.811Z,97717.75
2022-12-15T17:36:29.644Z,97719.47
2022-12-15T17:39:01.351Z,97731.19
2022-12-15T17:41:57.963Z,97731.63
2022-12-15T17:44:33.024Z,97735.81
2022-12-15T17:47:00.649Z,97736.13
2022-12-15T17:49:33.029Z,97732.47
2022-12-15T17:52:05.048Z,97746.16
2022-12-15T17:54:31.538Z,97732.94
2022-12-15T17:56:58.761Z,97732.69
2022-12-15T17:59:25.454Z,97724.91
2022-12-15T18:01:52.353Z,97725.50
2022-12-15T18:04:19.164Z,97736.06
2022-12-15T18:06:45.919Z,97730.09
2022-12-15T18:09:16.151Z,97737.72
2022-12-15T18:11:45.296Z,97743.09
2022-12-15T18:14:17.407Z,97752.53
2022-12-15T18:16:45.275Z,97760.09
2022-12-15T18:19:12.445Z,97764.25
2022-12-15T18:21:39.481Z,97769.38
2022-12-15T18:24:15.117Z,97773.38
2022-12-15T18:26:41.693Z,97779.22
2022-12-15T18:29:19.914Z,97764.69
2022-12-15T18:31:48.520Z,97767.75
2022-12-15T18:34:21.400Z,97763.13
2022-12-15T18:36:48.534Z,97771.16
2022-12-15T18:39:21.239Z,97756.25
2022-12-15T18:41:48.436Z,97769.38
2022-12-15T18:44:24.780Z,97767.72
2022-12-15T18:46:51.988Z,97765.38
2022-12-15T18:49:19.141Z,97767.69
2022-12-15T18:51:47.082Z,97767.75
2022-12-15T18:54:29.664Z,97761.72
2022-12-15T18:56:57.065Z,97762.53
2022-12-15T18:59:28.407Z,97770.88
2022-12-15T19:02:02.372Z,97766.34
2022-12-15T19:04:38.325Z,97764.53
2022-12-15T19:07:09.682Z,97766.22
2022-12-15T19:09:36.239Z,97761.78
2022-12-15T19:12:17.948Z,97756.66
2022-12-15T19:14:49.729Z,97758.00
2022-12-15T19:17:44.333Z,97757.03
2022-12-15T19:20:36.611Z,97760.81
2022-12-15T19:23:04.299Z,97760.75
2022-12-15T19:25:39.882Z,97745.53
2022-12-15T19:28:14.182Z,97740.34
2022-12-15T19:30:48.197Z,97744.63
2022-12-15T19:33:25.280Z,97751.81
2022-12-15T19:35:51.934Z,97743.81
2022-12-15T19:38:32.363Z,97739.66
2022-12-15T19:41:00.155Z,97738.66
2022-12-15T19:43:27.494Z,97735.19
2022-12-15T19:45:54.497Z,97738.56
2022-12-15T19:48:23.745Z,97744.38
2022-12-15T19:50:52.319Z,97739.00
2022-12-15T19:53:31.537Z,97739.66
2022-12-15T19:56:07.986Z,97740.44
2022-12-15T19:58:37.615Z,97739.66
2022-12-15T20:01:14.847Z,97741.53
2022-12-15T20:03:46.842Z,97725.16
2022-12-15T20:06:19.636Z,97731.88
2022-12-15T20:08:48.494Z,97725.06
2022-12-15T20:11:20.291Z,97726.25
2022-12-15T20:13:48.821Z,97720.69
2022-12-15T20:16:19.259Z,97717.22
2022-12-15T20:19:03.733Z,97712.22
2022-12-15T20:21:37.263Z,97718.34
2022-12-15T20:24:12.433Z,97714.53
2022-12-15T20:26:40.108Z,97706.88
2022-12-15T20:29:32.627Z,97693.84
2022-12-15T20:31:59.827Z,97702.47
2022-12-15T20:34:26.559Z,97700.16
2022-12-15T20:36:53.304Z,97700.84
2022-12-15T20:39:26.929Z,97697.28
2022-12-15T20:41:56.693Z,97698.78
2022-12-15T20:44:24.177Z,97696.09
2022-12-15T20:46:50.869Z,97698.69
2022-12-15T20:49:20.679Z,97699.00
2022-12-15T20:51:49.160Z,97695.75
2022-12-15T20:54:19.308Z,97702.66
2022-12-15T20:56:48.043Z,97699.78
2022-12-15T20:59:15.764Z,97703.56
2022-12-15T21:01:44.606Z,97695.06
2022-12-15T21:04:29.533Z,97695.50
2022-12-15T21:06:56.797Z,97699.06
2022-12-15T21:09:25.138Z,97691.94
2022-12-15T21:11:54.500Z,97697.59
2022-12-15T21:14:23.672Z,97697.25
2022-12-15T21:16:50.672Z,97695.41
2022-12-15T21:19:20.996Z,97686.72
2022-12-15T21:21:55.030Z,97691.00
2022-12-15T21:24:25.144Z,97696.78
2022-12-15T21:26:52.885Z,97690.22
2022-12-15T21:29:27.561Z,97699.19
2022-12-15T21:31:54.670Z,97693.66
2022-12-15T21:34:21.364Z,97702.91
2022-12-15T21:36:51.855Z,97695.00
2022-12-15T21:39:25.594Z,97694.75
2022-12-15T21:41:52.348Z,97697.00
2022-12-15T21:44:27.036Z,97705.06
2022-12-15T21:46:53.838Z,97709.34
2022-12-15T21:49:42.834Z,97710.97
2022-12-15T21:52:10.770Z,97711.88
2022-12-15T21:54:37.484Z,97718.38
2022-12-15T21:57:04.243Z,97719.25
2022-12-15T21:59:33.220Z,97712.44
2022-12-15T22:02:27.083Z,97721.97
2022-12-15T22:09:02.040Z,97736.97
2022-12-15T22:11:35.940Z,97747.91
2022-12-15T22:14:33.575Z,97746.69
2022-12-15T22:17:39.536Z,97752.53
2022-12-15T22:20:28.246Z,97756.13
2022-12-15T22:23:03.757Z,97746.19
2022-12-15T22:25:31.117Z,97755.56
2022-12-15T22:28:00.172Z,97755.06
2022-12-15T22:30:27.258Z,97753.56
2022-12-15T22:32:58.409Z,97751.69
2022-12-15T22:35:38.097Z,97746.53
2022-12-15T22:38:10.584Z,97742.69
2022-12-15T22:40:44.781Z,97741.84
2022-12-15T22:43:25.253Z,97734.59
2022-12-15T22:45:55.257Z,97730.13
2022-12-15T22:48:56.730Z,97739.34
2022-12-15T22:51:45.076Z,97731.44
2022-12-15T22:54:50.390Z,97734.94
2022-12-15T22:58:03.758Z,97730.13
2022-12-15T23:00:55.120Z,97730.38
2022-12-15T23:03:31.277Z,97731.06
2022-12-15T23:06:07.143Z,97731.00
2022-12-15T23:08:59.135Z,97727.41
2022-12-15T23:11:52.572Z,97733.88
2022-12-15T23:14:40.709Z,97741.34
2022-12-15T23:20:07.592Z,97743.25
2022-12-15T23:22:54.843Z,97741.03
2022-12-15T23:26:01.419Z,97739.19
2022-12-15T23:28:30.888Z,97737.31
2022-12-15T23:30:57.933Z,97729.50
2022-12-15T23:33:27.548Z,97733.72
2022-12-15T23:39:20.821Z,97728.88
2022-12-15T23:49:00.026Z,97724.03
2022-12-15T23:51:53.095Z,97729.31
2022-12-15T23:54:52.799Z,97728.38
